createdAt,value
2022-08-29T00:01:46.197Z,13.64
2022-08-29T00:04:47.943Z,13.60
2022-08-29T00:07:50.894Z,13.53
2022-08-29T00:10:52.803Z,13.51
2022-08-29T00:13:55.442Z,13.51
2022-08-29T00:16:57.143Z,13.51
2022-08-29T00:19:58.968Z,13.52
2022-08-29T00:23:03.962Z,13.49
2022-08-29T00:26:05.705Z,13.44
2022-08-29T00:29:07.397Z,13.42
2022-08-29T00:32:08.967Z,13.38
2022-08-29T00:35:11.496Z,13.35
2022-08-29T00:38:16.619Z,13.36
2022-08-29T00:41:20.122Z,13.34
2022-08-29T00:44:21.969Z,13.27
2022-08-29T00:47:26.614Z,13.23
2022-08-29T00:50:29.786Z,13.18
2022-08-29T00:53:35.632Z,13.15
2022-08-29T00:56:39.346Z,13.18
2022-08-29T00:59:41.333Z,13.23
2022-08-29T01:02:43.526Z,13.19
2022-08-29T01:05:46.386Z,13.15
2022-08-29T01:08:49.335Z,13.14
2022-08-29T01:12:17.912Z,13.13
2022-08-29T01:15:19.680Z,13.06
2022-08-29T01:18:22.997Z,13.02
2022-08-29T01:21:28.689Z,13.02
2022-08-29T01:24:36.510Z,13.04
2022-08-29T01:27:40.689Z,13.06
2022-08-29T01:30:57.474Z,13.01
2022-08-29T01:33:59.429Z,12.99
2022-08-29T01:37:02.316Z,13.02
2022-08-29T01:40:05.982Z,13.02
2022-08-29T01:43:07.689Z,13.00
2022-08-29T01:46:11.903Z,12.97
2022-08-29T01:49:14.230Z,12.93
2022-08-29T01:52:16.031Z,12.92
2022-08-29T01:55:19.111Z,12.88
2022-08-29T01:58:20.787Z,12.85
2022-08-29T02:01:25.499Z,12.85
2022-08-29T02:04:27.458Z,12.82
2022-08-29T02:07:29.623Z,12.82
2022-08-29T02:10:32.647Z,12.77
2022-08-29T02:13:34.253Z,12.77
2022-08-29T02:16:35.842Z,12.76
2022-08-29T02:19:38.997Z,12.72
2022-08-29T02:22:40.921Z,12.72
2022-08-29T02:25:44.227Z,12.74
2022-08-29T02:28:49.478Z,12.71
2022-08-29T02:31:51.242Z,12.71
2022-08-29T02:34:53.000Z,12.69
2022-08-29T02:37:54.641Z,12.66
2022-08-29T02:40:58.579Z,12.63
2022-08-29T02:44:00.268Z,12.56
2022-08-29T02:47:02.996Z,12.56
2022-08-29T02:50:05.848Z,12.56
2022-08-29T02:53:07.753Z,12.53
2022-08-29T02:56:10.768Z,12.52
2022-08-29T02:59:16.017Z,12.50
2022-08-29T03:02:20.277Z,12.53
2022-08-29T03:05:24.398Z,12.51
2022-08-29T03:08:29.483Z,12.49
2022-08-29T03:11:32.850Z,12.50
2022-08-29T03:14:34.377Z,12.44
2022-08-29T03:17:35.993Z,12.43
2022-08-29T03:20:38.376Z,12.45
2022-08-29T03:23:41.991Z,12.42
2022-08-29T03:26:45.064Z,12.40
2022-08-29T03:29:56.169Z,12.38
2022-08-29T03:32:58.171Z,12.31
2022-08-29T03:36:00.033Z,12.31
2022-08-29T03:39:01.613Z,12.31
2022-08-29T03:42:05.474Z,12.33
2022-08-29T03:45:08.139Z,12.32
2022-08-29T03:48:09.888Z,12.27
2022-08-29T03:51:11.938Z,12.29
2022-08-29T03:54:13.656Z,12.26
2022-08-29T03:57:16.670Z,12.27
2022-08-29T04:00:20.484Z,12.30
2022-08-29T04:03:31.205Z,12.32
2022-08-29T04:06:36.639Z,12.30
2022-08-29T04:09:38.298Z,12.29
2022-08-29T04:12:41.485Z,12.29
2022-08-29T04:15:46.210Z,12.28
2022-08-29T04:18:47.907Z,12.21
2022-08-29T04:21:51.872Z,12.18
2022-08-29T04:24:53.449Z,12.17
2022-08-29T04:27:56.401Z,12.17
2022-08-29T04:30:57.932Z,12.16
2022-08-29T04:33:59.480Z,12.14
2022-08-29T04:37:01.239Z,12.14
2022-08-29T04:40:04.320Z,12.14
2022-08-29T04:43:07.581Z,12.15
2022-08-29T04:46:16.365Z,12.23
2022-08-29T04:49:26.193Z,12.28
2022-08-29T04:52:28.787Z,12.31
2022-08-29T04:55:31.357Z,12.35
2022-08-29T04:58:34.598Z,12.39
2022-08-29T05:01:37.789Z,12.39
2022-08-29T05:04:39.908Z,12.37
2022-08-29T05:07:42.911Z,12.38
2022-08-29T05:10:47.764Z,12.40
2022-08-29T05:13:52.161Z,12.41
2022-08-29T05:16:54.051Z,12.29
2022-08-29T05:19:55.903Z,12.34
2022-08-29T05:22:57.993Z,12.38
2022-08-29T05:26:00.852Z,12.45
2022-08-29T05:29:08.478Z,12.46
2022-08-29T05:32:11.747Z,12.45
2022-08-29T05:35:13.408Z,12.49
2022-08-29T05:38:15.818Z,12.44
2022-08-29T05:41:17.835Z,12.48
2022-08-29T05:44:22.866Z,12.47
2022-08-29T05:47:25.619Z,12.48
2022-08-29T05:50:30.673Z,12.48
2022-08-29T05:53:33.327Z,12.51
2022-08-29T05:56:35.318Z,12.47
2022-08-29T05:59:38.682Z,12.49
2022-08-29T06:02:40.542Z,12.52
2022-08-29T06:05:42.522Z,12.57
2022-08-29T06:08:44.411Z,12.67
2022-08-29T06:11:47.948Z,12.73
2022-08-29T06:14:51.379Z,12.74
2022-08-29T06:17:53.350Z,12.84
2022-08-29T06:20:55.280Z,12.83
2022-08-29T06:23:57.589Z,12.90
2022-08-29T06:27:00.373Z,12.90
2022-08-29T06:30:04.423Z,12.90
2022-08-29T06:33:06.211Z,12.94
2022-08-29T06:36:09.132Z,12.89
2022-08-29T06:39:11.788Z,12.87
2022-08-29T06:42:14.024Z,12.88
2022-08-29T06:45:17.383Z,12.94
2022-08-29T06:48:19.267Z,13.02
2022-08-29T06:51:21.133Z,13.06
2022-08-29T06:54:23.692Z,13.15
2022-08-29T06:57:26.800Z,13.30
2022-08-29T07:00:32.272Z,13.41
2022-08-29T07:03:34.184Z,13.53
2022-08-29T07:06:36.558Z,13.69
2022-08-29T07:09:38.562Z,13.79
2022-08-29T07:12:41.051Z,13.81
2022-08-29T07:15:45.202Z,13.88
2022-08-29T07:18:48.051Z,13.97
2022-08-29T07:21:50.135Z,14.03
2022-08-29T07:24:51.925Z,14.06
2022-08-29T07:27:53.672Z,14.08
2022-08-29T07:30:56.891Z,14.10
2022-08-29T07:34:02.002Z,14.11
2022-08-29T07:37:05.786Z,14.19
2022-08-29T07:40:09.124Z,14.24
2022-08-29T07:43:11.336Z,14.20
2022-08-29T07:46:18.105Z,14.26
2022-08-29T07:49:19.925Z,14.33
2022-08-29T07:52:21.629Z,14.39
2022-08-29T07:55:23.549Z,14.46
2022-08-29T07:58:26.588Z,14.50
2022-08-29T08:01:31.029Z,14.60
2022-08-29T08:04:32.843Z,14.60
2022-08-29T08:07:35.371Z,14.71
2022-08-29T08:10:38.447Z,14.87
2022-08-29T08:13:40.938Z,14.96
2022-08-29T08:16:44.978Z,14.94
2022-08-29T08:19:49.622Z,14.94
2022-08-29T08:22:51.384Z,15.02
2022-08-29T08:25:53.470Z,15.14
2022-08-29T08:28:55.406Z,15.29
2022-08-29T08:32:11.770Z,15.22
2022-08-29T08:35:14.570Z,15.27
2022-08-29T08:38:19.533Z,15.36
2022-08-29T08:41:27.199Z,15.40
2022-08-29T08:44:49.752Z,15.37
2022-08-29T08:47:56.837Z,15.46
2022-08-29T08:51:00.557Z,15.54
2022-08-29T08:54:03.848Z,15.63
2022-08-29T08:57:08.081Z,15.72
2022-08-29T09:00:13.634Z,15.78
2022-08-29T09:03:26.435Z,15.84
2022-08-29T09:06:32.495Z,15.93
2022-08-29T09:09:41.964Z,16.02
2022-08-29T09:12:51.374Z,16.03
2022-08-29T09:15:54.736Z,16.09
2022-08-29T09:19:02.106Z,16.08
2022-08-29T09:22:09.657Z,15.98
2022-08-29T09:25:12.338Z,15.96
2022-08-29T09:28:19.986Z,15.98
2022-08-29T09:31:23.817Z,16.06
2022-08-29T09:34:57.101Z,16.17
2022-08-29T09:37:58.689Z,16.30
2022-08-29T09:41:05.102Z,16.40
2022-08-29T09:44:09.718Z,16.40
2022-08-29T09:47:13.062Z,16.45
2022-08-29T09:50:23.905Z,16.48
2022-08-29T09:53:25.808Z,16.49
2022-08-29T09:56:28.244Z,16.63
2022-08-29T09:59:31.418Z,16.79
2022-08-29T10:02:39.061Z,16.80
2022-08-29T10:05:45.066Z,16.81
2022-08-29T10:08:56.179Z,16.93
2022-08-29T10:12:01.188Z,16.97
2022-08-29T10:15:04.950Z,16.93
2022-08-29T10:18:20.990Z,17.00
2022-08-29T10:21:31.504Z,16.98
2022-08-29T10:24:41.901Z,17.12
2022-08-29T10:27:46.511Z,17.22
2022-08-29T10:30:54.442Z,17.26
2022-08-29T10:34:01.720Z,17.36
2022-08-29T10:37:08.109Z,17.55
2022-08-29T10:40:16.822Z,17.72
2022-08-29T10:43:24.453Z,17.73
2022-08-29T10:46:39.897Z,17.65
2022-08-29T10:49:48.241Z,17.61
2022-08-29T10:52:57.793Z,17.62
2022-08-29T10:56:04.396Z,17.64
2022-08-29T10:59:15.012Z,17.70
2022-08-29T11:02:22.207Z,17.76
2022-08-29T11:05:25.815Z,17.85
2022-08-29T11:08:30.915Z,17.84
2022-08-29T11:11:33.359Z,17.82
2022-08-29T11:14:38.322Z,17.80
2022-08-29T11:17:42.307Z,17.82
2022-08-29T11:20:46.799Z,17.83
2022-08-29T11:23:50.286Z,17.84
2022-08-29T11:26:57.645Z,17.86
2022-08-29T11:30:02.934Z,17.97
2022-08-29T11:33:08.658Z,18.02
2022-08-29T11:36:19.610Z,18.10
2022-08-29T11:39:51.421Z,18.32
2022-08-29T11:42:55.026Z,18.35
2022-08-29T11:45:58.349Z,18.21
2022-08-29T11:49:14.731Z,18.18
2022-08-29T11:52:26.404Z,18.09
2022-08-29T11:55:32.775Z,18.09
2022-08-29T11:58:43.463Z,18.09
2022-08-29T12:02:00.666Z,18.04
2022-08-29T12:05:04.052Z,18.11
2022-08-29T12:08:35.627Z,18.14
2022-08-29T12:12:01.445Z,18.12
2022-08-29T12:15:25.214Z,18.32
2022-08-29T12:18:36.695Z,18.72
2022-08-29T12:21:48.549Z,19.02
2022-08-29T12:24:57.274Z,19.01
2022-08-29T12:28:06.033Z,19.19
2022-08-29T12:31:18.333Z,19.35
2022-08-29T12:34:45.146Z,19.34
2022-08-29T12:37:57.760Z,19.21
2022-08-29T12:41:04.862Z,19.07
2022-08-29T12:44:10.615Z,18.98
2022-08-29T12:47:18.932Z,18.95
2022-08-29T12:50:22.997Z,18.93
2022-08-29T12:53:25.537Z,18.89
2022-08-29T12:56:27.050Z,18.97
2022-08-29T12:59:29.130Z,19.22
2022-08-29T13:02:33.213Z,19.31
2022-08-29T13:05:35.984Z,19.28
2022-08-29T13:08:37.541Z,19.34
2022-08-29T13:11:39.188Z,19.32
2022-08-29T13:14:47.023Z,19.25
2022-08-29T13:17:51.169Z,19.23
2022-08-29T13:21:04.147Z,19.21
2022-08-29T13:24:10.086Z,19.17
2022-08-29T13:27:18.905Z,19.11
2022-08-29T13:30:22.533Z,19.18
2022-08-29T13:33:27.949Z,19.30
2022-08-29T13:36:38.823Z,19.30
2022-08-29T13:39:44.874Z,19.25
2022-08-29T13:42:46.372Z,19.33
2022-08-29T13:45:47.959Z,19.40
2022-08-29T13:48:57.472Z,19.39
2022-08-29T13:51:59.488Z,19.39
2022-08-29T13:55:01.261Z,19.57
2022-08-29T13:58:03.638Z,19.64
2022-08-29T14:01:29.473Z,19.73
2022-08-29T14:04:38.166Z,19.77
2022-08-29T14:07:42.132Z,19.74
2022-08-29T14:10:43.677Z,19.73
2022-08-29T14:13:45.719Z,19.84
2022-08-29T14:16:50.442Z,19.97
2022-08-29T14:19:53.381Z,20.09
2022-08-29T14:22:54.877Z,20.18
2022-08-29T14:25:56.379Z,20.16
2022-08-29T14:29:03.175Z,20.23
2022-08-29T14:32:05.253Z,20.31
2022-08-29T14:35:08.754Z,20.35
2022-08-29T14:38:11.535Z,20.39
2022-08-29T14:41:13.371Z,20.60
2022-08-29T14:44:20.230Z,20.60
2022-08-29T14:47:22.290Z,20.58
2022-08-29T14:50:25.865Z,20.44
2022-08-29T14:53:27.632Z,20.26
2022-08-29T14:56:47.692Z,20.15
2022-08-29T14:59:51.007Z,20.06
2022-08-29T15:02:52.611Z,20.01
2022-08-29T15:05:55.685Z,19.99
2022-08-29T15:08:59.140Z,19.97
2022-08-29T15:12:00.709Z,19.97
2022-08-29T15:15:02.188Z,19.99
2022-08-29T15:18:05.667Z,20.04
2022-08-29T15:21:08.755Z,20.07
2022-08-29T15:24:10.327Z,20.14
2022-08-29T15:27:12.298Z,20.25
2022-08-29T15:30:17.655Z,20.18
2022-08-29T15:33:19.240Z,20.27
2022-08-29T15:36:22.962Z,20.23
2022-08-29T15:39:27.239Z,20.16
2022-08-29T15:42:30.524Z,20.11
2022-08-29T15:45:31.979Z,20.06
2022-08-29T15:48:33.649Z,20.05
2022-08-29T15:51:36.695Z,20.05
2022-08-29T15:54:38.585Z,20.05
2022-08-29T15:57:51.847Z,20.05
2022-08-29T16:00:54.333Z,20.02
2022-08-29T16:03:55.927Z,20.02
2022-08-29T16:06:58.994Z,20.00
2022-08-29T16:10:02.765Z,19.95
2022-08-29T16:13:06.548Z,19.92
2022-08-29T16:16:08.088Z,19.93
2022-08-29T16:19:10.272Z,20.09
2022-08-29T16:22:13.184Z,20.17
2022-08-29T16:25:15.161Z,20.15
2022-08-29T16:28:16.904Z,20.04
2022-08-29T16:31:19.163Z,19.91
2022-08-29T16:34:20.955Z,19.84
2022-08-29T16:37:24.042Z,19.77
2022-08-29T16:40:27.477Z,19.75
2022-08-29T16:43:29.085Z,19.73
2022-08-29T16:46:31.340Z,19.66
2022-08-29T16:49:33.857Z,19.61
2022-08-29T16:52:36.924Z,19.54
2022-08-29T16:55:38.426Z,19.47
2022-08-29T16:58:58.318Z,19.41
2022-08-29T17:02:05.536Z,19.39
2022-08-29T17:05:07.636Z,19.41
2022-08-29T17:08:10.566Z,19.47
2022-08-29T17:11:17.965Z,19.47
2022-08-29T17:14:20.640Z,19.47
2022-08-29T17:17:22.234Z,19.46
2022-08-29T17:20:24.706Z,19.44
2022-08-29T17:23:29.525Z,19.41
2022-08-29T17:26:31.095Z,19.39
2022-08-29T17:29:32.633Z,19.35
2022-08-29T17:32:34.124Z,19.31
2022-08-29T17:35:44.894Z,19.29
2022-08-29T17:38:48.938Z,19.27
2022-08-29T17:41:50.791Z,19.23
2022-08-29T17:44:52.403Z,19.16
2022-08-29T17:47:54.047Z,19.11
2022-08-29T17:50:55.645Z,19.07
2022-08-29T17:54:03.637Z,19.03
2022-08-29T17:57:05.527Z,18.98
2022-08-29T18:00:08.009Z,18.96
2022-08-29T18:03:09.673Z,18.93
2022-08-29T18:06:15.027Z,18.86
2022-08-29T18:09:18.493Z,18.81
2022-08-29T18:12:20.439Z,18.79
2022-08-29T18:15:22.123Z,18.74
2022-08-29T18:18:26.233Z,18.69
2022-08-29T18:21:29.517Z,18.59
2022-08-29T18:24:32.604Z,18.54
2022-08-29T18:27:34.080Z,18.46
2022-08-29T18:30:35.706Z,18.38
2022-08-29T18:33:59.055Z,18.32
2022-08-29T18:36:58.987Z,18.27
2022-08-29T18:40:04.000Z,18.17
2022-08-29T18:43:06.220Z,18.08
2022-08-29T18:46:14.275Z,17.99
2022-08-29T18:49:16.486Z,17.93
2022-08-29T18:52:18.163Z,17.89
2022-08-29T18:55:22.903Z,17.92
2022-08-29T18:58:27.242Z,18.04
2022-08-29T19:01:29.550Z,18.08
2022-08-29T19:04:31.339Z,18.08
2022-08-29T19:07:32.928Z,18.03
2022-08-29T19:10:36.240Z,18.05
2022-08-29T19:13:38.308Z,17.99
2022-08-29T19:16:40.513Z,17.81
2022-08-29T19:20:10.164Z,17.63
2022-08-29T19:23:13.485Z,17.53
2022-08-29T19:26:20.628Z,17.47
2022-08-29T19:29:23.127Z,17.41
2022-08-29T19:32:26.255Z,17.33
2022-08-29T19:35:28.101Z,17.25
2022-08-29T19:38:30.311Z,17.19
2022-08-29T19:41:34.467Z,17.13
2022-08-29T19:44:36.980Z,17.01
2022-08-29T19:47:40.282Z,16.94
2022-08-29T19:50:42.514Z,17.01
2022-08-29T19:53:50.892Z,17.08
2022-08-29T19:56:53.753Z,17.10
2022-08-29T19:59:55.418Z,17.15
2022-08-29T20:02:57.493Z,17.05
2022-08-29T20:06:00.039Z,16.97
2022-08-29T20:09:02.213Z,16.87
2022-08-29T20:12:08.859Z,16.75
2022-08-29T20:15:12.771Z,16.68
2022-08-29T20:18:15.353Z,16.65
2022-08-29T20:21:23.563Z,16.61
2022-08-29T20:24:25.468Z,16.59
2022-08-29T20:27:31.424Z,16.59
2022-08-29T20:30:36.526Z,16.69
2022-08-29T20:33:41.277Z,16.65
2022-08-29T20:37:02.430Z,16.69
2022-08-29T20:40:04.788Z,16.73
2022-08-29T20:43:08.011Z,16.75
2022-08-29T20:46:10.935Z,16.77
2022-08-29T20:49:13.745Z,16.72
2022-08-29T20:52:18.576Z,16.76
2022-08-29T20:55:20.361Z,16.81
2022-08-29T20:58:23.694Z,16.89
2022-08-29T21:01:26.877Z,16.90
2022-08-29T21:04:47.227Z,16.92
2022-08-29T21:07:49.553Z,16.93
2022-08-29T21:10:52.369Z,16.87
2022-08-29T21:13:55.686Z,16.83
2022-08-29T21:16:57.531Z,16.81
2022-08-29T21:19:59.101Z,16.74
2022-08-29T21:23:04.033Z,16.72
2022-08-29T21:26:05.799Z,16.71
2022-08-29T21:29:08.973Z,16.68
2022-08-29T21:32:10.588Z,16.66
2022-08-29T21:35:12.128Z,16.57
2022-08-29T21:38:14.000Z,16.56
2022-08-29T21:41:17.765Z,16.53
2022-08-29T21:44:22.895Z,16.53
2022-08-29T21:47:24.471Z,16.48
2022-08-29T21:50:26.550Z,16.43
2022-08-29T21:53:28.496Z,16.42
2022-08-29T21:56:30.865Z,16.38
2022-08-29T21:59:33.877Z,16.34
2022-08-29T22:02:35.486Z,16.31
2022-08-29T22:05:39.760Z,16.31
2022-08-29T22:08:45.550Z,16.26
2022-08-29T22:11:47.670Z,16.21
2022-08-29T22:15:09.097Z,16.19
2022-08-29T22:18:14.052Z,16.18
2022-08-29T22:21:16.542Z,16.18
2022-08-29T22:24:18.430Z,16.17
2022-08-29T22:27:20.060Z,16.14
2022-08-29T22:30:23.750Z,16.09
2022-08-29T22:33:33.834Z,16.03
2022-08-29T22:36:35.538Z,15.97
2022-08-29T22:39:37.096Z,15.94
2022-08-29T22:42:38.928Z,15.88
2022-08-29T22:45:42.280Z,15.85
2022-08-29T22:48:44.064Z,15.79
2022-08-29T22:51:45.931Z,15.73
2022-08-29T22:54:47.701Z,15.68
2022-08-29T22:57:49.570Z,15.70
2022-08-29T23:00:52.584Z,15.69
2022-08-29T23:03:54.846Z,15.64
2022-08-29T23:06:56.334Z,15.61
2022-08-29T23:09:58.016Z,15.57
2022-08-29T23:12:59.705Z,15.52
2022-08-29T23:16:02.982Z,15.53
2022-08-29T23:19:04.634Z,15.48
2022-08-29T23:22:06.599Z,15.40
2022-08-29T23:25:12.159Z,15.37
2022-08-29T23:28:13.820Z,15.36
2022-08-29T23:31:18.136Z,15.28
2022-08-29T23:34:20.144Z,15.23
2022-08-29T23:37:21.596Z,15.22
2022-08-29T23:40:25.359Z,15.16
2022-08-29T23:43:28.156Z,15.11
2022-08-29T23:46:31.228Z,15.10
2022-08-29T23:49:32.862Z,15.03
2022-08-29T23:52:34.601Z,14.96
2022-08-29T23:55:36.591Z,14.92
2022-08-29T23:58:38.417Z,14.88
